sensor_id;sensor_type;location;lat;lon;timestamp;pressure;altitude;pressure_sealevel;temperature;humidity
78411;BME280;67706;51.074;-1.796;2023-03-23T00:01:03;99219.78;;;10.13;75.90
78411;BME280;67706;51.074;-1.796;2023-03-23T00:03:31;99225.31;;;10.07;76.37
78411;BME280;67706;51.074;-1.796;2023-03-23T00:05:58;99228.41;;;9.99;76.23
78411;BME280;67706;51.074;-1.796;2023-03-23T00:08:30;99231.00;;;9.94;76.75
78411;BME280;67706;51.074;-1.796;2023-03-23T00:10:59;99220.59;;;9.84;75.74
78411;BME280;67706;51.074;-1.796;2023-03-23T00:13:28;99219.88;;;9.89;75.44
78411;BME280;67706;51.074;-1.796;2023-03-23T00:15:55;99223.56;;;9.83;75.82
78411;BME280;67706;51.074;-1.796;2023-03-23T00:18:24;99237.81;;;9.73;76.78
78411;BME280;67706;51.074;-1.796;2023-03-23T00:20:51;99240.47;;;9.80;75.90
78411;BME280;67706;51.074;-1.796;2023-03-23T00:23:20;99242.22;;;9.74;75.49
78411;BME280;67706;51.074;-1.796;2023-03-23T00:25:49;99238.94;;;9.66;76.14
78411;BME280;67706;51.074;-1.796;2023-03-23T00:28:19;99248.84;;;9.67;75.32
78411;BME280;67706;51.074;-1.796;2023-03-23T00:30:54;99259.88;;;9.60;75.41
78411;BME280;67706;51.074;-1.796;2023-03-23T00:33:23;99266.03;;;9.55;74.91
78411;BME280;67706;51.074;-1.796;2023-03-23T00:35:52;99256.63;;;9.51;74.85
78411;BME280;67706;51.074;-1.796;2023-03-23T00:38:19;99260.66;;;9.49;75.01
78411;BME280;67706;51.074;-1.796;2023-03-23T00:40:46;99274.56;;;9.47;74.96
78411;BME280;67706;51.074;-1.796;2023-03-23T00:43:14;99272.91;;;9.46;74.43
78411;BME280;67706;51.074;-1.796;2023-03-23T00:45:41;99280.13;;;9.41;74.66
78411;BME280;67706;51.074;-1.796;2023-03-23T00:48:10;99269.66;;;9.38;75.44
78411;BME280;67706;51.074;-1.796;2023-03-23T00:50:39;99266.69;;;9.39;75.35
78411;BME280;67706;51.074;-1.796;2023-03-23T00:53:06;99270.00;;;9.41;75.89
78411;BME280;67706;51.074;-1.796;2023-03-23T00:55:33;99271.09;;;9.40;76.37
78411;BME280;67706;51.074;-1.796;2023-03-23T00:58:00;99275.94;;;9.38;76.84
78411;BME280;67706;51.074;-1.796;2023-03-23T01:00:26;99279.38;;;9.34;76.96
78411;BME280;67706;51.074;-1.796;2023-03-23T01:02:54;99279.16;;;9.35;77.01
78411;BME280;67706;51.074;-1.796;2023-03-23T01:05:20;99284.16;;;9.38;77.05
78411;BME280;67706;51.074;-1.796;2023-03-23T01:07:48;99289.47;;;9.33;77.30
78411;BME280;67706;51.074;-1.796;2023-03-23T01:10:15;99266.50;;;9.34;76.42
78411;BME280;67706;51.074;-1.796;2023-03-23T01:12:44;99278.53;;;9.33;76.75
78411;BME280;67706;51.074;-1.796;2023-03-23T01:15:15;99281.56;;;9.25;77.04
78411;BME280;67706;51.074;-1.796;2023-03-23T01:17:42;99283.63;;;9.30;76.51
78411;BME280;67706;51.074;-1.796;2023-03-23T01:20:10;99276.19;;;9.19;77.14
78411;BME280;67706;51.074;-1.796;2023-03-23T01:22:37;99282.50;;;9.19;77.30
78411;BME280;67706;51.074;-1.796;2023-03-23T01:25:06;99283.38;;;9.13;77.29
78411;BME280;67706;51.074;-1.796;2023-03-23T01:27:33;99283.47;;;9.07;77.60
78411;BME280;67706;51.074;-1.796;2023-03-23T01:30:00;99282.16;;;9.09;77.67
78411;BME280;67706;51.074;-1.796;2023-03-23T01:32:27;99283.66;;;9.05;77.33
78411;BME280;67706;51.074;-1.796;2023-03-23T01:34:54;99277.38;;;9.05;77.27
78411;BME280;67706;51.074;-1.796;2023-03-23T01:37:21;99283.53;;;9.00;77.19
78411;BME280;67706;51.074;-1.796;2023-03-23T01:39:52;99286.88;;;9.02;77.31
78411;BME280;67706;51.074;-1.796;2023-03-23T01:42:22;99284.25;;;8.89;77.99
78411;BME280;67706;51.074;-1.796;2023-03-23T01:45:21;99297.09;;;8.89;77.66
78411;BME280;67706;51.074;-1.796;2023-03-23T01:47:50;99283.66;;;8.87;77.89
78411;BME280;67706;51.074;-1.796;2023-03-23T01:50:20;99283.88;;;8.86;77.69
78411;BME280;67706;51.074;-1.796;2023-03-23T01:52:49;99302.19;;;8.85;77.39
78411;BME280;67706;51.074;-1.796;2023-03-23T01:55:18;99293.97;;;8.85;77.26
78411;BME280;67706;51.074;-1.796;2023-03-23T01:57:47;99297.59;;;8.79;77.62
78411;BME280;67706;51.074;-1.796;2023-03-23T02:00:15;99295.19;;;8.89;76.85
78411;BME280;67706;51.074;-1.796;2023-03-23T02:02:43;99295.03;;;8.84;77.17
78411;BME280;67706;51.074;-1.796;2023-03-23T02:05:14;99301.38;;;8.78;78.11
78411;BME280;67706;51.074;-1.796;2023-03-23T02:07:43;99306.66;;;8.79;77.65
78411;BME280;67706;51.074;-1.796;2023-03-23T02:10:10;99295.47;;;8.81;77.62
78411;BME280;67706;51.074;-1.796;2023-03-23T02:12:37;99302.28;;;8.72;78.35
78411;BME280;67706;51.074;-1.796;2023-03-23T02:15:06;99298.28;;;8.74;77.99
78411;BME280;67706;51.074;-1.796;2023-03-23T02:17:38;99294.25;;;8.77;78.11
78411;BME280;67706;51.074;-1.796;2023-03-23T02:20:18;99297.91;;;8.71;78.08
78411;BME280;67706;51.074;-1.796;2023-03-23T02:26:11;99310.38;;;8.60;79.03
78411;BME280;67706;51.074;-1.796;2023-03-23T02:31:52;99310.47;;;8.72;78.90
78411;BME280;67706;51.074;-1.796;2023-03-23T02:34:27;99309.31;;;8.61;79.17
78411;BME280;67706;51.074;-1.796;2023-03-23T02:36:59;99308.09;;;8.57;79.85
78411;BME280;67706;51.074;-1.796;2023-03-23T02:39:29;99307.81;;;8.65;79.95
78411;BME280;67706;51.074;-1.796;2023-03-23T02:41:59;99287.38;;;8.68;79.46
78411;BME280;67706;51.074;-1.796;2023-03-23T02:44:31;99299.84;;;8.64;80.11
78411;BME280;67706;51.074;-1.796;2023-03-23T02:47:00;99305.03;;;8.72;79.63
78411;BME280;67706;51.074;-1.796;2023-03-23T02:49:33;99301.25;;;8.73;79.32
78411;BME280;67706;51.074;-1.796;2023-03-23T02:52:04;99312.03;;;8.61;79.83
78411;BME280;67706;51.074;-1.796;2023-03-23T02:54:32;99302.81;;;8.62;79.92
78411;BME280;67706;51.074;-1.796;2023-03-23T02:56:59;99311.03;;;8.56;80.10
78411;BME280;67706;51.074;-1.796;2023-03-23T02:59:26;99320.72;;;8.58;80.09
78411;BME280;67706;51.074;-1.796;2023-03-23T03:02:05;99309.22;;;8.50;80.41
78411;BME280;67706;51.074;-1.796;2023-03-23T03:04:35;99316.50;;;8.56;80.15
78411;BME280;67706;51.074;-1.796;2023-03-23T03:09:54;99324.53;;;8.51;80.19
78411;BME280;67706;51.074;-1.796;2023-03-23T03:12:30;99329.22;;;8.44;80.21
78411;BME280;67706;51.074;-1.796;2023-03-23T03:15:08;99331.06;;;8.50;79.73
78411;BME280;67706;51.074;-1.796;2023-03-23T03:17:40;99331.69;;;8.52;79.81
78411;BME280;67706;51.074;-1.796;2023-03-23T03:20:10;99321.78;;;8.51;79.65
78411;BME280;67706;51.074;-1.796;2023-03-23T03:22:41;99331.34;;;8.42;80.18
78411;BME280;67706;51.074;-1.796;2023-03-23T03:25:10;99323.75;;;8.44;80.26
78411;BME280;67706;51.074;-1.796;2023-03-23T03:27:39;99325.25;;;8.40;80.00
78411;BME280;67706;51.074;-1.796;2023-03-23T03:30:10;99325.50;;;8.32;80.57
78411;BME280;67706;51.074;-1.796;2023-03-23T03:32:43;99330.75;;;8.33;80.68
78411;BME280;67706;51.074;-1.796;2023-03-23T03:35:13;99325.13;;;8.28;80.91
78411;BME280;67706;51.074;-1.796;2023-03-23T03:37:41;99323.00;;;8.30;81.15
78411;BME280;67706;51.074;-1.796;2023-03-23T03:40:10;99329.53;;;8.29;81.32
78411;BME280;67706;51.074;-1.796;2023-03-23T03:42:38;99323.19;;;8.35;81.31
78411;BME280;67706;51.074;-1.796;2023-03-23T03:45:07;99319.00;;;8.33;81.45
78411;BME280;67706;51.074;-1.796;2023-03-23T03:47:34;99325.72;;;8.30;81.98
78411;BME280;67706;51.074;-1.796;2023-03-23T03:50:01;99329.97;;;8.20;82.76
78411;BME280;67706;51.074;-1.796;2023-03-23T03:52:29;99336.50;;;8.19;82.74
78411;BME280;67706;51.074;-1.796;2023-03-23T03:54:57;99332.47;;;8.28;82.06
78411;BME280;67706;51.074;-1.796;2023-03-23T03:57:24;99333.75;;;8.19;82.93
78411;BME280;67706;51.074;-1.796;2023-03-23T03:59:51;99335.25;;;8.15;83.32
78411;BME280;67706;51.074;-1.796;2023-03-23T04:02:18;99333.31;;;8.22;83.17
78411;BME280;67706;51.074;-1.796;2023-03-23T04:04:46;99334.38;;;8.21;83.41
78411;BME280;67706;51.074;-1.796;2023-03-23T04:07:13;99324.88;;;8.30;83.12
78411;BME280;67706;51.074;-1.796;2023-03-23T04:09:43;99338.72;;;8.35;83.22
78411;BME280;67706;51.074;-1.796;2023-03-23T04:12:11;99347.28;;;8.45;82.99
78411;BME280;67706;51.074;-1.796;2023-03-23T04:14:38;99352.59;;;8.40;83.26
78411;BME280;67706;51.074;-1.796;2023-03-23T04:17:05;99358.66;;;8.42;83.18
78411;BME280;67706;51.074;-1.796;2023-03-23T04:19:32;99357.31;;;8.51;82.87
78411;BME280;67706;51.074;-1.796;2023-03-23T04:21:59;99355.00;;;8.54;82.53
78411;BME280;67706;51.074;-1.796;2023-03-23T04:24:26;99353.53;;;8.52;82.62
78411;BME280;67706;51.074;-1.796;2023-03-23T04:26:57;99356.00;;;8.60;82.21
78411;BME280;67706;51.074;-1.796;2023-03-23T04:29:25;99358.75;;;8.60;82.40
78411;BME280;67706;51.074;-1.796;2023-03-23T04:31:52;99361.69;;;8.58;82.91
78411;BME280;67706;51.074;-1.796;2023-03-23T04:34:21;99350.88;;;8.70;82.26
78411;BME280;67706;51.074;-1.796;2023-03-23T04:36:48;99352.72;;;8.76;82.44
78411;BME280;67706;51.074;-1.796;2023-03-23T04:39:15;99343.13;;;8.67;83.14
78411;BME280;67706;51.074;-1.796;2023-03-23T04:41:41;99345.69;;;8.62;83.50
78411;BME280;67706;51.074;-1.796;2023-03-23T04:44:10;99337.91;;;8.59;83.72
78411;BME280;67706;51.074;-1.796;2023-03-23T04:46:43;99342.72;;;8.63;83.57
78411;BME280;67706;51.074;-1.796;2023-03-23T04:49:15;99339.84;;;8.58;83.79
78411;BME280;67706;51.074;-1.796;2023-03-23T04:51:46;99340.22;;;8.62;83.88
78411;BME280;67706;51.074;-1.796;2023-03-23T04:54:13;99347.34;;;8.63;83.86
78411;BME280;67706;51.074;-1.796;2023-03-23T04:56:40;99344.78;;;8.68;83.61
78411;BME280;67706;51.074;-1.796;2023-03-23T04:59:07;99350.94;;;8.63;83.81
78411;BME280;67706;51.074;-1.796;2023-03-23T05:01:35;99348.59;;;8.67;84.02
78411;BME280;67706;51.074;-1.796;2023-03-23T05:04:04;99344.78;;;8.68;83.86
78411;BME280;67706;51.074;-1.796;2023-03-23T05:06:30;99336.38;;;8.69;83.94
78411;BME280;67706;51.074;-1.796;2023-03-23T05:08:57;99343.84;;;8.80;83.56
78411;BME280;67706;51.074;-1.796;2023-03-23T05:11:24;99346.59;;;8.80;83.59
78411;BME280;67706;51.074;-1.796;2023-03-23T05:13:51;99334.81;;;8.80;83.21
78411;BME280;67706;51.074;-1.796;2023-03-23T05:16:18;99334.75;;;8.87;83.31
78411;BME280;67706;51.074;-1.796;2023-03-23T05:18:46;99332.44;;;8.90;83.63
78411;BME280;67706;51.074;-1.796;2023-03-23T05:21:13;99325.03;;;8.91;84.03
78411;BME280;67706;51.074;-1.796;2023-03-23T05:23:41;99328.63;;;8.91;83.87
78411;BME280;67706;51.074;-1.796;2023-03-23T05:26:07;99339.56;;;8.91;83.83
78411;BME280;67706;51.074;-1.796;2023-03-23T05:28:34;99333.81;;;8.99;83.58
78411;BME280;67706;51.074;-1.796;2023-03-23T05:31:01;99333.38;;;9.02;83.65
78411;BME280;67706;51.074;-1.796;2023-03-23T05:33:28;99331.31;;;8.98;84.08
78411;BME280;67706;51.074;-1.796;2023-03-23T05:35:56;99319.03;;;9.07;83.65
78411;BME280;67706;51.074;-1.796;2023-03-23T05:38:23;99330.16;;;9.05;83.53
78411;BME280;67706;51.074;-1.796;2023-03-23T05:40:50;99317.88;;;9.14;83.55
78411;BME280;67706;51.074;-1.796;2023-03-23T05:43:17;99309.91;;;9.13;84.07
78411;BME280;67706;51.074;-1.796;2023-03-23T05:45:44;99321.66;;;9.13;84.17
78411;BME280;67706;51.074;-1.796;2023-03-23T05:48:11;99333.25;;;9.15;84.88
78411;BME280;67706;51.074;-1.796;2023-03-23T05:50:37;99327.06;;;9.20;85.31
78411;BME280;67706;51.074;-1.796;2023-03-23T05:53:06;99335.91;;;9.22;85.66
78411;BME280;67706;51.074;-1.796;2023-03-23T05:55:33;99316.97;;;9.20;85.99
78411;BME280;67706;51.074;-1.796;2023-03-23T05:57:59;99330.22;;;9.23;85.72
78411;BME280;67706;51.074;-1.796;2023-03-23T06:00:26;99328.84;;;9.32;85.92
78411;BME280;67706;51.074;-1.796;2023-03-23T06:02:56;99329.44;;;9.34;85.24
78411;BME280;67706;51.074;-1.796;2023-03-23T06:05:23;99315.75;;;9.34;85.06
78411;BME280;67706;51.074;-1.796;2023-03-23T06:07:51;99305.91;;;9.33;85.10
78411;BME280;67706;51.074;-1.796;2023-03-23T06:10:20;99320.03;;;9.30;84.94
78411;BME280;67706;51.074;-1.796;2023-03-23T06:12:47;99310.91;;;9.36;84.22
78411;BME280;67706;51.074;-1.796;2023-03-23T06:15:13;99317.47;;;9.35;84.41
78411;BME280;67706;51.074;-1.796;2023-03-23T06:17:40;99316.16;;;9.38;84.10
78411;BME280;67706;51.074;-1.796;2023-03-23T06:20:08;99313.56;;;9.43;83.67
78411;BME280;67706;51.074;-1.796;2023-03-23T06:22:36;99320.19;;;9.35;83.44
78411;BME280;67706;51.074;-1.796;2023-03-23T06:25:03;99326.09;;;9.32;83.69
78411;BME280;67706;51.074;-1.796;2023-03-23T06:27:32;99325.34;;;9.25;83.85
78411;BME280;67706;51.074;-1.796;2023-03-23T06:30:00;99325.34;;;9.25;83.57
78411;BME280;67706;51.074;-1.796;2023-03-23T06:32:29;99313.03;;;9.16;84.02
78411;BME280;67706;51.074;-1.796;2023-03-23T06:34:56;99329.13;;;9.24;82.82
78411;BME280;67706;51.074;-1.796;2023-03-23T06:37:23;99326.16;;;9.26;83.01
78411;BME280;67706;51.074;-1.796;2023-03-23T06:39:51;99341.78;;;9.25;82.79
78411;BME280;67706;51.074;-1.796;2023-03-23T06:42:18;99334.84;;;9.23;82.50
78411;BME280;67706;51.074;-1.796;2023-03-23T06:44:46;99347.31;;;9.19;82.77
78411;BME280;67706;51.074;-1.796;2023-03-23T06:47:12;99340.63;;;9.33;82.11
78411;BME280;67706;51.074;-1.796;2023-03-23T06:49:39;99338.44;;;9.23;82.23
78411;BME280;67706;51.074;-1.796;2023-03-23T06:52:06;99332.78;;;9.18;82.62
78411;BME280;67706;51.074;-1.796;2023-03-23T06:54:33;99340.38;;;9.16;82.44
78411;BME280;67706;51.074;-1.796;2023-03-23T06:57:00;99343.28;;;9.21;82.37
78411;BME280;67706;51.074;-1.796;2023-03-23T06:59:27;99355.78;;;9.35;81.31
78411;BME280;67706;51.074;-1.796;2023-03-23T07:01:55;99356.81;;;9.34;81.86
78411;BME280;67706;51.074;-1.796;2023-03-23T07:04:22;99357.16;;;9.44;81.28
78411;BME280;67706;51.074;-1.796;2023-03-23T07:06:49;99353.56;;;9.44;81.43
78411;BME280;67706;51.074;-1.796;2023-03-23T07:09:16;99348.03;;;9.50;81.13
78411;BME280;67706;51.074;-1.796;2023-03-23T07:11:43;99347.25;;;9.61;80.95
78411;BME280;67706;51.074;-1.796;2023-03-23T07:14:12;99345.59;;;9.60;81.05
78411;BME280;67706;51.074;-1.796;2023-03-23T07:16:40;99353.56;;;9.62;81.27
78411;BME280;67706;51.074;-1.796;2023-03-23T07:19:08;99341.09;;;9.66;81.35
78411;BME280;67706;51.074;-1.796;2023-03-23T07:21:35;99351.13;;;9.72;81.53
78411;BME280;67706;51.074;-1.796;2023-03-23T07:24:02;99347.72;;;9.77;81.16
78411;BME280;67706;51.074;-1.796;2023-03-23T07:26:29;99343.75;;;9.73;81.45
78411;BME280;67706;51.074;-1.796;2023-03-23T07:28:56;99344.97;;;9.77;81.26
78411;BME280;67706;51.074;-1.796;2023-03-23T07:31:22;99351.50;;;9.94;81.11
78411;BME280;67706;51.074;-1.796;2023-03-23T07:33:49;99363.00;;;10.02;80.51
78411;BME280;67706;51.074;-1.796;2023-03-23T07:36:18;99349.22;;;10.09;80.47
78411;BME280;67706;51.074;-1.796;2023-03-23T07:38:45;99353.00;;;10.08;80.29
78411;BME280;67706;51.074;-1.796;2023-03-23T07:41:13;99361.84;;;10.10;79.86
78411;BME280;67706;51.074;-1.796;2023-03-23T07:43:40;99353.44;;;10.11;79.64
78411;BME280;67706;51.074;-1.796;2023-03-23T07:46:07;99350.28;;;10.08;80.19
78411;BME280;67706;51.074;-1.796;2023-03-23T07:48:34;99359.56;;;10.07;80.31
78411;BME280;67706;51.074;-1.796;2023-03-23T07:51:01;99359.34;;;10.08;80.26
78411;BME280;67706;51.074;-1.796;2023-03-23T07:53:29;99365.13;;;10.18;80.15
78411;BME280;67706;51.074;-1.796;2023-03-23T07:55:57;99347.06;;;10.29;79.92
78411;BME280;67706;51.074;-1.796;2023-03-23T07:58:24;99354.66;;;10.45;79.55
78411;BME280;67706;51.074;-1.796;2023-03-23T08:00:51;99353.56;;;10.46;79.90
78411;BME280;67706;51.074;-1.796;2023-03-23T08:03:19;99363.25;;;10.49;79.88
78411;BME280;67706;51.074;-1.796;2023-03-23T08:05:46;99360.84;;;10.52;79.13
78411;BME280;67706;51.074;-1.796;2023-03-23T08:08:12;99362.44;;;10.60;77.78
78411;BME280;67706;51.074;-1.796;2023-03-23T08:10:41;99367.53;;;10.56;77.84
78411;BME280;67706;51.074;-1.796;2023-03-23T08:13:08;99378.91;;;10.60;77.59
78411;BME280;67706;51.074;-1.796;2023-03-23T08:15:35;99368.28;;;10.63;78.27
78411;BME280;67706;51.074;-1.796;2023-03-23T08:18:03;99373.88;;;10.68;77.68
78411;BME280;67706;51.074;-1.796;2023-03-23T08:20:30;99371.91;;;10.75;77.28
78411;BME280;67706;51.074;-1.796;2023-03-23T08:22:58;99365.72;;;10.80;77.75
78411;BME280;67706;51.074;-1.796;2023-03-23T08:25:25;99368.31;;;10.75;77.86
78411;BME280;67706;51.074;-1.796;2023-03-23T08:27:53;99370.34;;;10.68;78.46
78411;BME280;67706;51.074;-1.796;2023-03-23T08:30:21;99366.16;;;10.65;79.51
78411;BME280;67706;51.074;-1.796;2023-03-23T08:32:50;99352.44;;;10.65;80.58
78411;BME280;67706;51.074;-1.796;2023-03-23T08:35:18;99368.81;;;10.83;80.35
78411;BME280;67706;51.074;-1.796;2023-03-23T08:37:45;99363.72;;;10.87;79.69
78411;BME280;67706;51.074;-1.796;2023-03-23T08:40:17;99353.94;;;11.02;79.89
78411;BME280;67706;51.074;-1.796;2023-03-23T08:42:45;99363.59;;;11.16;80.16
78411;BME280;67706;51.074;-1.796;2023-03-23T08:45:17;99358.59;;;11.13;79.10
78411;BME280;67706;51.074;-1.796;2023-03-23T08:47:44;99350.97;;;11.15;78.83
78411;BME280;67706;51.074;-1.796;2023-03-23T08:50:20;99364.00;;;11.20;79.41
78411;BME280;67706;51.074;-1.796;2023-03-23T08:52:48;99367.34;;;11.22;79.97
78411;BME280;67706;51.074;-1.796;2023-03-23T08:55:16;99356.25;;;11.29;80.01
78411;BME280;67706;51.074;-1.796;2023-03-23T08:57:45;99349.41;;;11.43;79.25
78411;BME280;67706;51.074;-1.796;2023-03-23T09:00:17;99355.88;;;11.60;78.49
78411;BME280;67706;51.074;-1.796;2023-03-23T09:02:46;99359.72;;;11.70;77.80
78411;BME280;67706;51.074;-1.796;2023-03-23T09:05:14;99343.09;;;11.77;76.72
78411;BME280;67706;51.074;-1.796;2023-03-23T09:07:44;99337.09;;;11.80;76.53
78411;BME280;67706;51.074;-1.796;2023-03-23T09:10:12;99348.28;;;11.90;75.87
78411;BME280;67706;51.074;-1.796;2023-03-23T09:12:40;99361.69;;;11.98;75.34
78411;BME280;67706;51.074;-1.796;2023-03-23T09:15:08;99349.47;;;11.94;75.29
78411;BME280;67706;51.074;-1.796;2023-03-23T09:17:40;99350.13;;;11.84;75.71
78411;BME280;67706;51.074;-1.796;2023-03-23T09:20:09;99340.47;;;11.70;75.67
78411;BME280;67706;51.074;-1.796;2023-03-23T09:22:37;99350.47;;;11.65;76.13
78411;BME280;67706;51.074;-1.796;2023-03-23T09:25:06;99343.91;;;11.54;76.67
78411;BME280;67706;51.074;-1.796;2023-03-23T09:27:33;99344.16;;;11.53;76.96
78411;BME280;67706;51.074;-1.796;2023-03-23T09:30:02;99345.50;;;11.39;78.06
78411;BME280;67706;51.074;-1.796;2023-03-23T09:32:32;99347.63;;;11.37;78.14
78411;BME280;67706;51.074;-1.796;2023-03-23T09:35:02;99350.75;;;11.52;78.05
78411;BME280;67706;51.074;-1.796;2023-03-23T09:37:29;99340.94;;;11.67;77.70
78411;BME280;67706;51.074;-1.796;2023-03-23T09:39:56;99352.53;;;11.69;77.20
78411;BME280;67706;51.074;-1.796;2023-03-23T09:42:37;99339.03;;;11.68;76.86
78411;BME280;67706;51.074;-1.796;2023-03-23T09:45:15;99339.03;;;11.68;77.11
78411;BME280;67706;51.074;-1.796;2023-03-23T09:47:53;99343.09;;;11.77;76.03
78411;BME280;67706;51.074;-1.796;2023-03-23T09:50:28;99338.78;;;11.81;76.86
78411;BME280;67706;51.074;-1.796;2023-03-23T09:53:00;99336.84;;;11.93;75.95
78411;BME280;67706;51.074;-1.796;2023-03-23T09:55:28;99330.09;;;12.01;75.07
78411;BME280;67706;51.074;-1.796;2023-03-23T09:57:59;99340.88;;;12.02;75.44
78411;BME280;67706;51.074;-1.796;2023-03-23T10:00:30;99344.41;;;12.14;74.96
78411;BME280;67706;51.074;-1.796;2023-03-23T10:03:02;99350.50;;;12.16;74.31
78411;BME280;67706;51.074;-1.796;2023-03-23T10:05:35;99349.28;;;12.24;74.27
78411;BME280;67706;51.074;-1.796;2023-03-23T10:08:09;99362.09;;;12.18;74.65
78411;BME280;67706;51.074;-1.796;2023-03-23T10:10:45;99377.19;;;12.04;75.20
78411;BME280;67706;51.074;-1.796;2023-03-23T10:13:19;99380.31;;;11.96;75.76
78411;BME280;67706;51.074;-1.796;2023-03-23T10:15:49;99391.47;;;11.78;77.16
78411;BME280;67706;51.074;-1.796;2023-03-23T10:18:19;99389.88;;;11.59;78.28
78411;BME280;67706;51.074;-1.796;2023-03-23T10:20:53;99388.00;;;11.48;79.33
78411;BME280;67706;51.074;-1.796;2023-03-23T10:23:35;99393.50;;;11.48;78.66
78411;BME280;67706;51.074;-1.796;2023-03-23T10:26:11;99374.50;;;11.58;78.96
78411;BME280;67706;51.074;-1.796;2023-03-23T10:28:41;99381.53;;;11.54;79.56
78411;BME280;67706;51.074;-1.796;2023-03-23T10:31:12;99400.41;;;11.39;80.56
78411;BME280;67706;51.074;-1.796;2023-03-23T10:33:41;99394.31;;;11.37;79.91
78411;BME280;67706;51.074;-1.796;2023-03-23T10:36:15;99377.22;;;11.23;82.05
78411;BME280;67706;51.074;-1.796;2023-03-23T10:38:47;99377.09;;;11.30;81.50
78411;BME280;67706;51.074;-1.796;2023-03-23T10:41:16;99374.38;;;11.53;80.96
78411;BME280;67706;51.074;-1.796;2023-03-23T10:43:44;99399.22;;;11.81;77.28
78411;BME280;67706;51.074;-1.796;2023-03-23T10:46:22;99391.66;;;12.00;75.37
78411;BME280;67706;51.074;-1.796;2023-03-23T10:48:52;99381.00;;;12.03;74.56
78411;BME280;67706;51.074;-1.796;2023-03-23T10:51:27;99401.91;;;12.16;75.42
78411;BME280;67706;51.074;-1.796;2023-03-23T10:53:57;99397.00;;;12.18;75.73
78411;BME280;67706;51.074;-1.796;2023-03-23T10:56:27;99391.50;;;12.18;75.21
78411;BME280;67706;51.074;-1.796;2023-03-23T10:58:55;99400.84;;;12.17;74.25
78411;BME280;67706;51.074;-1.796;2023-03-23T11:01:30;99410.72;;;12.29;74.08
78411;BME280;67706;51.074;-1.796;2023-03-23T11:03:57;99419.66;;;12.36;74.84
78411;BME280;67706;51.074;-1.796;2023-03-23T11:06:29;99417.25;;;12.40;72.95
78411;BME280;67706;51.074;-1.796;2023-03-23T11:09:00;99405.13;;;12.52;73.10
78411;BME280;67706;51.074;-1.796;2023-03-23T11:11:30;99385.38;;;12.55;72.06
78411;BME280;67706;51.074;-1.796;2023-03-23T11:13:58;99407.50;;;12.60;73.56
78411;BME280;67706;51.074;-1.796;2023-03-23T11:16:27;99400.41;;;12.64;70.96
78411;BME280;67706;51.074;-1.796;2023-03-23T11:18:54;99405.91;;;12.64;69.92
78411;BME280;67706;51.074;-1.796;2023-03-23T11:21:22;99406.84;;;12.70;70.36
78411;BME280;67706;51.074;-1.796;2023-03-23T11:23:53;99414.47;;;12.80;70.98
78411;BME280;67706;51.074;-1.796;2023-03-23T11:26:25;99387.44;;;12.76;70.22
78411;BME280;67706;51.074;-1.796;2023-03-23T11:28:56;99391.38;;;12.97;70.45
78411;BME280;67706;51.074;-1.796;2023-03-23T11:31:28;99372.94;;;12.98;69.79
78411;BME280;67706;51.074;-1.796;2023-03-23T11:33:57;99370.63;;;12.90;68.88
78411;BME280;67706;51.074;-1.796;2023-03-23T11:36:30;99375.38;;;12.94;69.40
78411;BME280;67706;51.074;-1.796;2023-03-23T11:38:59;99353.78;;;13.03;69.32
78411;BME280;67706;51.074;-1.796;2023-03-23T11:41:33;99367.66;;;13.08;67.80
78411;BME280;67706;51.074;-1.796;2023-03-23T11:44:08;99372.84;;;13.21;67.68
78411;BME280;67706;51.074;-1.796;2023-03-23T11:46:41;99359.66;;;13.23;68.40
78411;BME280;67706;51.074;-1.796;2023-03-23T11:49:15;99359.06;;;13.37;68.40
78411;BME280;67706;51.074;-1.796;2023-03-23T11:51:48;99368.16;;;13.38;68.31
78411;BME280;67706;51.074;-1.796;2023-03-23T11:54:23;99366.22;;;13.22;66.51
78411;BME280;67706;51.074;-1.796;2023-03-23T11:56:54;99357.63;;;13.35;66.99
78411;BME280;67706;51.074;-1.796;2023-03-23T11:59:27;99347.38;;;13.30;66.15
78411;BME280;67706;51.074;-1.796;2023-03-23T12:01:57;99364.66;;;13.42;66.49
78411;BME280;67706;51.074;-1.796;2023-03-23T12:04:46;99348.22;;;13.69;66.38
78411;BME280;67706;51.074;-1.796;2023-03-23T12:07:32;99345.91;;;13.83;66.38
78411;BME280;67706;51.074;-1.796;2023-03-23T12:10:14;99332.72;;;14.06;65.62
78411;BME280;67706;51.074;-1.796;2023-03-23T12:12:51;99322.19;;;14.03;64.37
78411;BME280;67706;51.074;-1.796;2023-03-23T12:15:25;99340.16;;;14.06;64.80
78411;BME280;67706;51.074;-1.796;2023-03-23T12:18:00;99335.56;;;14.11;65.44
78411;BME280;67706;51.074;-1.796;2023-03-23T12:20:37;99334.66;;;14.06;65.05
78411;BME280;67706;51.074;-1.796;2023-03-23T12:23:15;99335.75;;;13.83;64.89
78411;BME280;67706;51.074;-1.796;2023-03-23T12:28:54;99325.25;;;13.80;65.75
78411;BME280;67706;51.074;-1.796;2023-03-23T12:31:27;99332.91;;;13.78;65.57
78411;BME280;67706;51.074;-1.796;2023-03-23T12:34:03;99343.34;;;13.76;64.85
78411;BME280;67706;51.074;-1.796;2023-03-23T12:36:43;99342.28;;;13.77;64.70
78411;BME280;67706;51.074;-1.796;2023-03-23T12:39:33;99335.16;;;13.81;65.40
78411;BME280;67706;51.074;-1.796;2023-03-23T12:42:12;99328.19;;;13.74;65.58
78411;BME280;67706;51.074;-1.796;2023-03-23T12:44:48;99331.13;;;13.67;65.36
78411;BME280;67706;51.074;-1.796;2023-03-23T12:47:32;99325.53;;;13.62;65.74
78411;BME280;67706;51.074;-1.796;2023-03-23T12:50:05;99327.53;;;13.67;64.93
78411;BME280;67706;51.074;-1.796;2023-03-23T12:52:40;99336.66;;;13.50;65.50
78411;BME280;67706;51.074;-1.796;2023-03-23T12:55:15;99332.97;;;13.45;65.99
78411;BME280;67706;51.074;-1.796;2023-03-23T12:57:50;99323.41;;;13.31;69.69
78411;BME280;67706;51.074;-1.796;2023-03-23T13:00:22;99322.75;;;13.24;70.44
78411;BME280;67706;51.074;-1.796;2023-03-23T13:02:55;99314.16;;;13.20;70.51
78411;BME280;67706;51.074;-1.796;2023-03-23T13:05:32;99313.56;;;13.02;71.00
78411;BME280;67706;51.074;-1.796;2023-03-23T13:08:03;99321.56;;;12.87;72.21
78411;BME280;67706;51.074;-1.796;2023-03-23T13:10:34;99298.38;;;12.83;71.79
78411;BME280;67706;51.074;-1.796;2023-03-23T13:13:04;99308.47;;;12.94;71.65
78411;BME280;67706;51.074;-1.796;2023-03-23T13:15:37;99288.91;;;13.07;71.21
78411;BME280;67706;51.074;-1.796;2023-03-23T13:18:12;99302.06;;;13.21;70.81
78411;BME280;67706;51.074;-1.796;2023-03-23T13:20:55;99307.22;;;13.34;71.04